createdAt,value
2019-02-14T00:02:43.918Z,95.14
2019-02-14T00:05:48.289Z,95.04
2019-02-14T00:08:52.678Z,95.06
2019-02-14T00:11:56.941Z,94.99
2019-02-14T00:15:01.362Z,94.97
2019-02-14T00:18:05.681Z,95.10
2019-02-14T00:21:10.018Z,95.05
2019-02-14T00:24:14.304Z,95.06
2019-02-14T00:27:18.592Z,95.07
2019-02-14T00:30:22.882Z,95.12
2019-02-14T00:33:27.460Z,95.01
2019-02-14T00:36:31.792Z,94.96
2019-02-14T00:39:38.450Z,94.94
2019-02-14T00:42:42.726Z,94.75
2019-02-14T00:45:47.005Z,94.50
2019-02-14T00:48:51.311Z,94.45
2019-02-14T00:51:55.665Z,94.82
2019-02-14T00:55:04.647Z,94.84
2019-02-14T00:58:10.650Z,94.83
2019-02-14T01:01:14.953Z,94.82
2019-02-14T01:04:19.457Z,94.44
2019-02-14T01:07:23.739Z,94.37
2019-02-14T01:10:28.015Z,94.60
2019-02-14T01:13:32.495Z,94.54
2019-02-14T01:16:36.918Z,94.50
2019-02-14T01:19:41.235Z,94.48
2019-02-14T01:22:45.519Z,94.55
2019-02-14T01:25:49.785Z,94.43
2019-02-14T01:28:54.073Z,94.54
2019-02-14T01:31:58.335Z,94.45
2019-02-14T01:35:02.781Z,94.61
2019-02-14T01:38:07.047Z,94.56
2019-02-14T01:41:11.333Z,94.42
2019-02-14T01:44:15.599Z,94.45
2019-02-14T01:47:19.997Z,94.41
2019-02-14T01:50:24.277Z,94.44
2019-02-14T01:53:28.547Z,94.36
2019-02-14T01:56:36.030Z,94.49
2019-02-14T01:59:40.329Z,94.52
2019-02-14T02:02:44.855Z,94.50
2019-02-14T02:05:51.010Z,94.44
2019-02-14T02:08:55.216Z,94.51
2019-02-14T02:12:01.379Z,94.44
2019-02-14T02:15:06.391Z,94.45
2019-02-14T02:18:10.680Z,94.19
2019-02-14T02:21:14.953Z,94.40
2019-02-14T02:24:19.595Z,94.41
2019-02-14T02:27:24.312Z,94.22
2019-02-14T02:30:28.618Z,94.31
2019-02-14T02:33:32.891Z,94.59
2019-02-14T02:36:37.180Z,94.61
2019-02-14T02:39:41.461Z,94.59
2019-02-14T02:42:47.461Z,94.75
2019-02-14T02:45:51.902Z,94.81
2019-02-14T02:48:56.204Z,94.71
2019-02-14T02:52:00.493Z,94.88
2019-02-14T02:55:07.523Z,94.98
2019-02-14T02:58:11.798Z,94.91
2019-02-14T03:01:16.143Z,95.02
2019-02-14T03:04:20.424Z,95.29
2019-02-14T03:07:24.714Z,95.46
2019-02-14T03:10:29.415Z,95.55
2019-02-14T03:13:33.688Z,95.52
2019-02-14T03:16:38.437Z,95.69
2019-02-14T03:19:42.854Z,95.61
2019-02-14T03:22:47.225Z,95.58
2019-02-14T03:25:51.592Z,95.62
2019-02-14T03:28:55.866Z,95.82
2019-02-14T03:32:00.273Z,95.88
2019-02-14T03:35:04.773Z,96.03
2019-02-14T03:38:09.120Z,96.13
2019-02-14T03:41:13.389Z,96.24
2019-02-14T03:44:17.677Z,96.42
2019-02-14T03:47:21.981Z,96.50
2019-02-14T03:50:26.252Z,96.59
2019-02-14T03:53:30.558Z,96.64
2019-02-14T03:56:34.856Z,96.68
2019-02-14T03:59:39.143Z,96.66
2019-02-14T04:02:46.288Z,96.77
2019-02-14T04:05:53.701Z,97.09
2019-02-14T04:08:58.517Z,97.33
2019-02-14T04:12:02.810Z,97.57
2019-02-14T04:15:08.739Z,97.69
2019-02-14T04:18:13.040Z,97.89
2019-02-14T04:21:17.323Z,97.89
2019-02-14T04:24:21.820Z,97.93
2019-02-14T04:27:29.095Z,98.05
2019-02-14T04:30:33.493Z,98.20
2019-02-14T04:33:40.578Z,98.36
2019-02-14T04:36:45.002Z,98.18
2019-02-14T04:39:49.353Z,98.28
2019-02-14T04:42:53.994Z,98.39
2019-02-14T04:45:58.267Z,98.50
2019-02-14T04:49:02.544Z,98.55
2019-02-14T04:52:07.038Z,98.52
2019-02-14T04:55:11.627Z,98.44
2019-02-14T04:58:18.975Z,98.44
2019-02-14T05:01:23.264Z,98.49
2019-02-14T05:04:27.554Z,98.50
2019-02-14T05:07:31.852Z,98.38
2019-02-14T05:10:36.153Z,98.35
2019-02-14T05:13:40.461Z,98.33
2019-02-14T05:16:44.745Z,98.34
2019-02-14T05:19:49.164Z,98.35
2019-02-14T05:22:53.661Z,98.27
2019-02-14T05:25:57.932Z,98.29
2019-02-14T05:29:02.412Z,98.26
2019-02-14T05:32:06.690Z,98.19
2019-02-14T05:35:10.978Z,98.31
2019-02-14T05:38:15.294Z,98.32
2019-02-14T05:41:19.668Z,98.13
2019-02-14T05:44:24.032Z,97.89
2019-02-14T05:47:28.320Z,97.76
2019-02-14T05:50:32.730Z,97.60
2019-02-14T05:53:37.038Z,97.49
2019-02-14T05:56:41.420Z,97.41
2019-02-14T05:59:45.730Z,97.42
2019-02-14T06:02:50.142Z,97.34
2019-02-14T06:05:56.810Z,97.37
2019-02-14T06:09:01.106Z,97.34
2019-02-14T06:12:05.375Z,97.23
2019-02-14T06:15:10.341Z,96.87
2019-02-14T06:18:14.684Z,96.93
2019-02-14T06:21:21.795Z,97.15
2019-02-14T06:24:28.894Z,97.29
2019-02-14T06:27:33.185Z,97.22
2019-02-14T06:30:37.468Z,97.15
2019-02-14T06:33:41.769Z,97.25
2019-02-14T06:36:46.058Z,97.13
2019-02-14T06:39:50.360Z,97.12
2019-02-14T06:42:54.628Z,97.04
2019-02-14T06:46:00.042Z,96.87
2019-02-14T06:49:04.324Z,96.88
2019-02-14T06:52:08.592Z,96.62
2019-02-14T06:55:12.871Z,96.65
2019-02-14T06:58:17.187Z,96.93
2019-02-14T07:01:21.666Z,96.99
2019-02-14T07:04:26.040Z,97.01
2019-02-14T07:07:33.274Z,97.03
2019-02-14T07:10:37.569Z,96.90
2019-02-14T07:13:41.843Z,96.69
2019-02-14T07:16:46.137Z,96.52
2019-02-14T07:19:50.433Z,96.54
2019-02-14T07:22:54.794Z,96.57
2019-02-14T07:25:59.111Z,96.53
2019-02-14T07:29:03.681Z,96.44
2019-02-14T07:32:07.956Z,96.45
2019-02-14T07:35:12.264Z,96.34
2019-02-14T07:38:19.872Z,96.16
2019-02-14T07:41:24.147Z,96.32
2019-02-14T07:44:31.331Z,96.59
2019-02-14T07:47:35.614Z,96.85
2019-02-14T07:50:39.925Z,96.84
2019-02-14T07:53:44.324Z,96.96
2019-02-14T07:56:48.650Z,96.91
2019-02-14T07:59:54.150Z,96.79
2019-02-14T08:02:58.514Z,96.45
2019-02-14T08:06:02.798Z,96.11
2019-02-14T08:09:07.205Z,96.16
2019-02-14T08:12:11.524Z,96.01
2019-02-14T08:15:17.854Z,96.35
2019-02-14T08:18:22.149Z,96.54
2019-02-14T08:21:26.503Z,96.34
2019-02-14T08:24:30.849Z,96.34
2019-02-14T08:27:35.148Z,96.16
2019-02-14T08:30:39.592Z,96.08
2019-02-14T08:33:43.914Z,96.10
2019-02-14T08:36:48.290Z,95.68
2019-02-14T08:39:52.568Z,94.98
2019-02-14T08:42:58.546Z,95.34
2019-02-14T08:46:02.856Z,95.88
2019-02-14T08:49:07.170Z,95.98
2019-02-14T08:52:13.012Z,95.76
2019-02-14T08:55:20.437Z,95.40
2019-02-14T08:58:24.724Z,95.14
2019-02-14T09:01:29.008Z,95.12
2019-02-14T09:04:33.420Z,94.89
2019-02-14T09:07:37.848Z,94.78
2019-02-14T09:10:42.165Z,94.73
2019-02-14T09:13:46.462Z,94.43
2019-02-14T09:16:50.896Z,94.26
2019-02-14T09:19:55.193Z,94.35
2019-02-14T09:22:59.485Z,94.35
2019-02-14T09:26:03.853Z,93.71
2019-02-14T09:29:13.792Z,94.02
2019-02-14T09:32:18.894Z,94.19
2019-02-14T09:35:23.289Z,94.35
2019-02-14T09:38:29.684Z,94.16
2019-02-14T09:41:34.099Z,93.96
2019-02-14T09:44:38.405Z,93.58
2019-02-14T09:47:42.672Z,92.99
2019-02-14T09:50:47.062Z,93.05
2019-02-14T09:53:52.730Z,92.37
2019-02-14T09:56:57.129Z,92.06
2019-02-14T10:00:01.495Z,92.18
2019-02-14T10:03:05.854Z,91.38
2019-02-14T10:06:10.143Z,91.19
2019-02-14T10:09:14.489Z,90.84
2019-02-14T10:12:18.767Z,90.57
2019-02-14T10:15:23.036Z,90.37
2019-02-14T10:18:27.335Z,90.71
2019-02-14T10:21:31.741Z,90.97
2019-02-14T10:24:37.074Z,90.79
2019-02-14T10:27:44.037Z,90.63
2019-02-14T10:30:48.337Z,90.35
2019-02-14T10:33:52.611Z,90.17
2019-02-14T10:36:57.050Z,90.21
2019-02-14T10:40:01.420Z,90.70
2019-02-14T10:43:05.922Z,91.05
2019-02-14T10:46:13.151Z,90.78
2019-02-14T10:49:17.605Z,90.49
2019-02-14T10:52:21.897Z,90.44
2019-02-14T10:55:26.221Z,90.57
2019-02-14T10:58:30.511Z,90.20
2019-02-14T11:01:35.074Z,89.97
2019-02-14T11:04:39.455Z,89.96
2019-02-14T11:07:43.760Z,89.73
2019-02-14T11:10:48.243Z,89.86
2019-02-14T11:13:52.627Z,89.37
2019-02-14T11:16:56.928Z,88.99
2019-02-14T11:20:01.507Z,89.83
2019-02-14T11:23:06.778Z,89.85
2019-02-14T11:26:11.188Z,89.29
2019-02-14T11:29:15.486Z,88.58
2019-02-14T11:32:19.853Z,88.19
2019-02-14T11:35:24.150Z,88.14
2019-02-14T11:38:28.472Z,88.01
2019-02-14T11:41:32.912Z,88.38
2019-02-14T11:44:39.786Z,87.99
2019-02-14T11:47:43.354Z,88.51
2019-02-14T11:50:47.695Z,88.29
2019-02-14T11:53:52.068Z,88.45
2019-02-14T11:56:57.566Z,88.00
2019-02-14T12:00:02.066Z,87.67
2019-02-14T12:03:06.402Z,87.71
2019-02-14T12:06:10.784Z,86.94
2019-02-14T12:09:15.091Z,87.38
2019-02-14T12:12:20.814Z,87.48
2019-02-14T12:15:25.716Z,87.13
2019-02-14T12:18:30.058Z,86.79
2019-02-14T12:21:34.449Z,86.41
2019-02-14T12:24:38.826Z,85.49
2019-02-14T12:27:43.095Z,85.98
2019-02-14T12:30:47.698Z,86.65
2019-02-14T12:33:55.001Z,86.37
2019-02-14T12:36:59.274Z,86.20
2019-02-14T12:40:03.880Z,86.88
2019-02-14T12:43:08.176Z,87.03
2019-02-14T12:46:12.475Z,86.98
2019-02-14T12:49:16.943Z,86.60
2019-02-14T12:52:21.238Z,87.12
2019-02-14T12:55:25.544Z,85.93
2019-02-14T12:58:30.315Z,84.86
2019-02-14T13:01:34.950Z,83.95
2019-02-14T13:04:39.260Z,83.22
2019-02-14T13:07:45.088Z,82.21
2019-02-14T13:10:49.393Z,82.38
2019-02-14T13:13:53.927Z,82.18
2019-02-14T13:16:58.256Z,82.57
2019-02-14T13:20:02.699Z,83.30
2019-02-14T13:23:08.067Z,83.85
2019-02-14T13:26:12.408Z,84.41
2019-02-14T13:29:16.681Z,85.46
2019-02-14T13:32:21.112Z,85.58
2019-02-14T13:35:25.662Z,85.46
2019-02-14T13:38:32.253Z,84.78
2019-02-14T13:41:36.572Z,84.99
2019-02-14T13:44:42.986Z,84.70
2019-02-14T13:47:47.071Z,84.44
2019-02-14T13:50:53.931Z,84.21
2019-02-14T13:54:01.242Z,85.28
2019-02-14T13:57:05.889Z,84.39
2019-02-14T14:00:19.575Z,84.71
2019-02-14T14:03:26.608Z,85.55
2019-02-14T14:06:30.959Z,85.53
2019-02-14T14:09:38.716Z,86.13
2019-02-14T14:12:42.319Z,86.05
2019-02-14T14:15:46.955Z,86.12
2019-02-14T14:18:51.274Z,86.46
2019-02-14T14:21:55.581Z,86.87
2019-02-14T14:25:00.002Z,87.01
2019-02-14T14:28:04.439Z,87.39
2019-02-14T14:31:08.698Z,88.14
2019-02-14T14:34:13.001Z,88.79
2019-02-14T14:37:17.280Z,88.70
2019-02-14T14:40:21.900Z,88.93
2019-02-14T14:43:32.316Z,88.87
2019-02-14T14:46:51.575Z,88.40
2019-02-14T14:49:56.002Z,88.52
2019-02-14T14:53:00.407Z,88.95
2019-02-14T14:56:04.832Z,89.16
2019-02-14T14:59:09.139Z,89.24
2019-02-14T15:02:13.437Z,89.75
2019-02-14T15:05:17.726Z,90.20
2019-02-14T15:08:22.037Z,90.57
2019-02-14T15:11:26.321Z,90.22
2019-02-14T15:14:30.998Z,90.45
2019-02-14T15:17:35.311Z,90.91
2019-02-14T15:20:39.711Z,91.21
2019-02-14T15:23:44.131Z,91.59
2019-02-14T15:26:48.430Z,91.87
2019-02-14T15:29:52.815Z,92.09
2019-02-14T15:32:58.401Z,92.44
2019-02-14T15:36:02.710Z,92.02
2019-02-14T15:39:08.240Z,92.21
2019-02-14T15:42:12.685Z,92.09
2019-02-14T15:45:17.196Z,91.66
2019-02-14T15:48:21.489Z,91.97
2019-02-14T15:51:25.899Z,92.50
2019-02-14T15:54:31.374Z,92.87
2019-02-14T15:57:36.423Z,93.30
2019-02-14T16:00:40.848Z,93.42
2019-02-14T16:03:45.178Z,93.24
2019-02-14T16:06:50.559Z,93.26
2019-02-14T16:09:55.490Z,93.23
2019-02-14T16:12:59.795Z,93.30
2019-02-14T16:16:04.084Z,93.73
2019-02-14T16:19:09.273Z,93.77
2019-02-14T16:22:15.713Z,93.95
2019-02-14T16:25:20.681Z,93.99
2019-02-14T16:28:24.983Z,94.05
2019-02-14T16:31:29.404Z,93.73
2019-02-14T16:34:33.887Z,93.66
2019-02-14T16:37:38.184Z,93.70
2019-02-14T16:40:42.580Z,93.64
2019-02-14T16:43:47.022Z,93.70
2019-02-14T16:46:51.430Z,93.77
2019-02-14T16:49:57.231Z,93.89
2019-02-14T16:53:01.694Z,93.97
2019-02-14T16:56:05.985Z,93.89
2019-02-14T16:59:10.282Z,93.90
2019-02-14T17:02:14.690Z,94.01
2019-02-14T17:05:19.015Z,94.11
2019-02-14T17:08:23.404Z,94.08
2019-02-14T17:11:28.002Z,94.01
2019-02-14T17:14:32.536Z,94.15
2019-02-14T17:17:38.068Z,94.02
2019-02-14T17:20:42.373Z,93.66
2019-02-14T17:23:49.484Z,93.61
2019-02-14T17:26:53.774Z,94.01
2019-02-14T17:29:58.080Z,94.32
2019-02-14T17:33:02.414Z,94.40
2019-02-14T17:36:06.928Z,94.23
2019-02-14T17:39:11.336Z,94.59
2019-02-14T17:42:18.394Z,94.67
2019-02-14T17:45:22.763Z,94.84
2019-02-14T17:48:27.072Z,94.88
2019-02-14T17:51:31.374Z,94.97
2019-02-14T17:54:37.432Z,95.12
2019-02-14T17:57:41.768Z,95.27
2019-02-14T18:00:46.131Z,95.26
2019-02-14T18:03:50.636Z,95.07
2019-02-14T18:06:54.919Z,94.89
2019-02-14T18:09:59.327Z,94.60
2019-02-14T18:13:03.613Z,94.23
2019-02-14T18:16:08.071Z,94.63
2019-02-14T18:19:12.446Z,95.04
2019-02-14T18:22:16.943Z,95.29
2019-02-14T18:25:21.303Z,95.55
2019-02-14T18:28:25.775Z,95.43
2019-02-14T18:31:30.083Z,95.61
2019-02-14T18:34:34.556Z,95.89
2019-02-14T18:37:38.856Z,96.17
2019-02-14T18:40:43.159Z,96.33
2019-02-14T18:43:50.645Z,96.27
2019-02-14T18:46:55.211Z,96.38
2019-02-14T18:49:59.575Z,96.36
2019-02-14T18:53:04.008Z,96.37
2019-02-14T18:56:08.323Z,96.44
2019-02-14T18:59:12.654Z,96.51
2019-02-14T19:02:17.043Z,96.34
2019-02-14T19:05:21.456Z,96.43
2019-02-14T19:08:25.766Z,96.35
2019-02-14T19:11:30.058Z,96.61
2019-02-14T19:14:34.480Z,96.77
2019-02-14T19:17:38.956Z,97.05
2019-02-14T19:20:43.358Z,97.25
2019-02-14T19:23:49.078Z,97.15
2019-02-14T19:26:53.598Z,97.17
2019-02-14T19:29:58.008Z,97.25
2019-02-14T19:33:02.467Z,97.20
2019-02-14T19:36:06.904Z,97.20
2019-02-14T19:39:11.490Z,97.48
2019-02-14T19:42:16.045Z,97.61
2019-02-14T19:45:20.502Z,97.75
2019-02-14T19:48:25.014Z,97.90
2019-02-14T19:51:29.469Z,97.93
2019-02-14T19:54:33.851Z,97.86
2019-02-14T19:57:38.561Z,97.77
2019-02-14T20:00:43.178Z,97.74
2019-02-14T20:03:47.864Z,97.70
2019-02-14T20:06:52.526Z,97.71
2019-02-14T20:09:57.020Z,97.68
2019-02-14T20:13:01.547Z,97.58
2019-02-14T20:16:06.277Z,97.54
2019-02-14T20:19:10.983Z,97.48
2019-02-14T20:22:15.527Z,97.56
2019-02-14T20:25:21.362Z,97.66
2019-02-14T20:28:26.082Z,97.59
2019-02-14T20:31:30.846Z,97.57
2019-02-14T20:34:35.336Z,97.60
2019-02-14T20:37:39.811Z,97.65
2019-02-14T20:40:47.208Z,97.66
2019-02-14T20:43:51.591Z,97.71
2019-02-14T20:46:56.113Z,97.70
2019-02-14T20:50:00.717Z,97.70
2019-02-14T20:53:05.338Z,97.72
2019-02-14T20:56:12.514Z,97.78
2019-02-14T20:59:16.838Z,97.27
2019-02-14T21:02:21.158Z,97.34
2019-02-14T21:05:25.601Z,97.27
2019-02-14T21:08:29.974Z,97.26
2019-02-14T21:11:35.869Z,97.43
2019-02-14T21:14:40.967Z,97.48
2019-02-14T21:17:45.378Z,97.53
2019-02-14T21:20:51.072Z,97.63
2019-02-14T21:23:55.394Z,97.62
2019-02-14T21:27:00.318Z,97.60
2019-02-14T21:30:05.899Z,97.54
2019-02-14T21:33:10.281Z,97.41
2019-02-14T21:36:14.837Z,97.39
2019-02-14T21:39:21.081Z,97.23
2019-02-14T21:42:29.267Z,97.64
2019-02-14T21:45:32.859Z,97.93
2019-02-14T21:48:37.160Z,98.00
2019-02-14T21:51:41.481Z,98.18
2019-02-14T21:54:45.825Z,98.22
2019-02-14T21:57:50.325Z,98.19
2019-02-14T22:00:54.626Z,98.25
2019-02-14T22:04:03.426Z,98.24
2019-02-14T22:07:07.974Z,98.32
2019-02-14T22:10:12.702Z,98.39
2019-02-14T22:13:17.079Z,98.35
2019-02-14T22:16:21.540Z,98.41
2019-02-14T22:19:25.925Z,98.34
2019-02-14T22:22:30.341Z,98.29
2019-02-14T22:25:34.755Z,97.92
2019-02-14T22:28:39.153Z,97.62
2019-02-14T22:31:43.430Z,97.61
2019-02-14T22:34:48.444Z,97.59
2019-02-14T22:37:52.745Z,97.73
2019-02-14T22:40:57.156Z,97.80
2019-02-14T22:44:01.535Z,97.61
2019-02-14T22:47:05.925Z,97.42
2019-02-14T22:50:10.572Z,97.47
2019-02-14T22:53:15.058Z,97.41
2019-02-14T22:56:19.564Z,97.84
2019-02-14T22:59:23.870Z,98.04
2019-02-14T23:02:28.195Z,98.15
2019-02-14T23:05:32.825Z,98.23
2019-02-14T23:08:37.116Z,98.18
2019-02-14T23:11:41.430Z,98.20
2019-02-14T23:14:45.740Z,98.25
2019-02-14T23:17:50.058Z,98.34
2019-02-14T23:20:54.379Z,98.41
2019-02-14T23:24:01.887Z,98.60
2019-02-14T23:27:06.159Z,98.73
2019-02-14T23:30:10.598Z,98.77
2019-02-14T23:33:14.865Z,98.88
2019-02-14T23:36:19.164Z,99.01
2019-02-14T23:39:24.346Z,99.01
2019-02-14T23:42:28.646Z,98.92
2019-02-14T23:45:32.937Z,98.97
2019-02-14T23:48:37.288Z,99.05
2019-02-14T23:51:41.805Z,99.18
2019-02-14T23:54:46.335Z,99.20
2019-02-14T23:57:50.636Z,99.17
